createdAt,value
2023-08-25T03:08:16.031Z,82.08008
2023-08-25T03:10:15.966Z,81.89648
2023-08-25T03:12:15.831Z,81.93359
2023-08-25T03:14:15.816Z,82.05371
2023-08-25T03:16:16.070Z,81.6875
2023-08-25T03:18:15.952Z,81.73242
2023-08-25T03:20:15.894Z,82.23828
2023-08-25T03:23:56.191Z,82.46094
2023-08-25T03:25:56.387Z,82.41895
2023-08-25T03:27:56.346Z,82.41211
2023-08-25T03:29:56.085Z,82.54785
2023-08-25T03:31:56.215Z,82.40332
2023-08-25T03:33:56.159Z,82.28516
2023-08-25T03:35:56.168Z,82.375
2023-08-25T03:38:27.494Z,82.23145
2023-08-25T03:40:27.471Z,82.17676
2023-08-25T03:42:27.450Z,82.26855
2023-08-25T03:44:27.404Z,82.36914
2023-08-25T03:46:27.485Z,82.25098
2023-08-25T03:48:27.397Z,82.10645
2023-08-25T03:50:27.462Z,82.18066
2023-08-25T03:52:27.427Z,81.93164
2023-08-25T03:53:44.053Z,81.92285
2023-08-25T03:55:44.454Z,81.89844
2023-08-25T03:57:44.192Z,81.83496
2023-08-25T03:59:43.948Z,81.90918
2023-08-25T04:01:44.122Z,81.50586
2023-08-25T04:03:44.009Z,81.06055
2023-08-25T04:05:43.939Z,81.19824
2023-08-25T04:09:02.958Z,80.91895
2023-08-25T04:11:02.915Z,80.71387
2023-08-25T04:13:02.870Z,80.6709
2023-08-25T04:15:02.915Z,80.49902
2023-08-25T04:17:02.952Z,80.35938
2023-08-25T04:19:03.577Z,80.51855
2023-08-25T04:21:03.032Z,79.66016
2023-08-25T04:23:58.116Z,79.69629
2023-08-25T04:25:58.077Z,79.6582
2023-08-25T04:27:58.169Z,79.35254
2023-08-25T04:29:58.057Z,78.36719
2023-08-25T04:31:58.068Z,77.18848
2023-08-25T04:33:58.066Z,74.45703
2023-08-25T04:35:58.124Z,72.6543
2023-08-25T04:39:20.036Z,71.74219
2023-08-25T04:41:19.943Z,70.28125
2023-08-25T04:43:19.984Z,68.45801
2023-08-25T04:45:20.168Z,64.46191
2023-08-25T04:47:19.967Z,62.05859
2023-08-25T04:49:19.968Z,60.59668
2023-08-25T04:51:19.929Z,61.33105
2023-08-25T04:54:18.793Z,63.63477
2023-08-25T04:56:18.752Z,64.31934
2023-08-25T04:58:19.826Z,60.56836
2023-08-25T05:00:19.283Z,59.21387
2023-08-25T05:02:19.161Z,62.2002
2023-08-25T05:04:18.964Z,65.58301
2023-08-25T05:06:18.707Z,68.44824
2023-08-25T05:10:02.211Z,71.61719
2023-08-25T05:12:02.151Z,71.26855
2023-08-25T05:14:02.466Z,72.4502
2023-08-25T05:16:02.928Z,73.24219
2023-08-25T05:18:02.639Z,73.96875
2023-08-25T05:20:02.276Z,74.48535
2023-08-25T05:22:02.455Z,75.33398
2023-08-25T05:24:40.652Z,75.94727
2023-08-25T05:26:40.409Z,76.56641
2023-08-25T05:28:40.126Z,76.43555
2023-08-25T05:30:40.796Z,76.41895
2023-08-25T05:32:40.169Z,76.70898
2023-08-25T05:34:40.280Z,76.00684
2023-08-25T05:36:40.142Z,76.6084
2023-08-25T05:40:01.562Z,77.24902
2023-08-25T05:42:01.564Z,75.5166
2023-08-25T05:44:01.646Z,76.66113
2023-08-25T05:46:01.602Z,77.37598
2023-08-25T05:48:01.630Z,77.61816
2023-08-25T05:50:01.512Z,78.99121
2023-08-25T05:52:01.488Z,78.86914
2023-08-25T05:55:13.979Z,80.17188
2023-08-25T05:57:13.899Z,78.74707
2023-08-25T05:59:13.909Z,78.29688
2023-08-25T06:01:14.012Z,79.12012
2023-08-25T06:03:14.446Z,77.50684
2023-08-25T06:05:13.913Z,77.45117
2023-08-25T06:07:13.856Z,76.71777
2023-08-25T06:10:29.823Z,75.62207
2023-08-25T06:12:29.807Z,76.74121
2023-08-25T06:14:29.758Z,75.7666
2023-08-25T06:16:29.910Z,76.01074
2023-08-25T06:18:29.830Z,76.31641
2023-08-25T06:20:29.821Z,76.55566
2023-08-25T06:22:30.322Z,76.02051
2023-08-25T06:25:39.140Z,76.5498
2023-08-25T06:27:39.250Z,77.16113
2023-08-25T06:29:39.133Z,76.15332
2023-08-25T06:31:39.286Z,75.75
2023-08-25T06:33:39.200Z,76.10059
2023-08-25T06:35:39.232Z,77.27344
2023-08-25T06:37:39.121Z,77.0332
2023-08-25T06:40:50.004Z,79.68359
2023-08-25T06:42:50.149Z,77.99219
2023-08-25T06:44:50.119Z,77.66992
2023-08-25T06:46:50.144Z,77.89551
2023-08-25T06:48:50.301Z,76.1748
2023-08-25T06:50:50.007Z,75.54785
2023-08-25T06:52:50.283Z,76.09277
2023-08-25T06:56:05.910Z,75.64844
2023-08-25T06:58:06.022Z,73.98438
2023-08-25T07:00:05.851Z,73.19141
2023-08-25T07:02:05.714Z,75.03809
2023-08-25T07:04:05.896Z,73.34961
2023-08-25T07:06:05.782Z,74.44824
2023-08-25T07:08:05.698Z,73.55469
2023-08-25T07:11:12.015Z,75.41895
2023-08-25T07:13:12.147Z,73.85938
2023-08-25T07:15:12.023Z,74.18359
2023-08-25T07:17:12.026Z,73.96289
2023-08-25T07:19:14.596Z,72.2334
2023-08-25T07:21:12.246Z,74.58203
2023-08-25T07:23:12.113Z,75.58496
2023-08-25T07:26:41.032Z,76.30273
2023-08-25T07:28:41.541Z,75.70801
2023-08-25T07:30:40.995Z,75.12988
2023-08-25T07:32:41.518Z,75.12598
2023-08-25T07:34:41.215Z,75.11621
2023-08-25T07:36:40.976Z,76.29883
2023-08-25T07:38:41.068Z,75.83887
2023-08-25T07:41:18.021Z,74.27051
2023-08-25T07:43:17.815Z,75.08984
2023-08-25T07:45:17.865Z,71.75684
2023-08-25T07:47:17.904Z,71.5
2023-08-25T07:49:17.774Z,72.32617
2023-08-25T07:51:39.333Z,73.86328
2023-08-25T07:53:17.776Z,71.11328
2023-08-25T07:56:09.977Z,70.54199
2023-08-25T07:58:10.137Z,70.38379
2023-08-25T08:00:10.189Z,71.74121
2023-08-25T08:02:10.186Z,68.3584
2023-08-25T08:04:10.338Z,67.28125
2023-08-25T08:06:10.000Z,68.40137
2023-08-25T08:08:10.088Z,68.10449
2023-08-25T08:10:09.997Z,67.76172
2023-08-25T08:11:47.453Z,64.52832
2023-08-25T08:13:47.380Z,62.32617
2023-08-25T08:15:47.854Z,60.9541
2023-08-25T08:17:47.461Z,61.88867
2023-08-25T08:19:47.449Z,60.11035
2023-08-25T08:21:47.477Z,60.24121
2023-08-25T08:23:47.374Z,59.58301
2023-08-25T08:26:45.676Z,57.7002
2023-08-25T08:28:45.674Z,55.57617
2023-08-25T08:30:47.675Z,56.5332
2023-08-25T08:32:45.794Z,55.9834
2023-08-25T08:34:45.667Z,56.02637
2023-08-25T08:36:45.677Z,55.68359
2023-08-25T08:38:45.756Z,57.68066
2023-08-25T08:41:49.601Z,54.11426
2023-08-25T08:43:49.728Z,53.40527
2023-08-25T08:45:49.578Z,54.19727
2023-08-25T08:47:49.607Z,53.13379
2023-08-25T08:49:49.672Z,53.31152
2023-08-25T08:51:50.691Z,50.83594
2023-08-25T08:53:49.683Z,53.54395
2023-08-25T08:55:50.092Z,52.57129
2023-08-25T08:57:53.118Z,50.08887
2023-08-25T08:59:52.192Z,50.28125
2023-08-25T09:01:52.533Z,51.90137
2023-08-25T09:03:52.373Z,50.27539
2023-08-25T09:05:52.179Z,51.6875
2023-08-25T09:07:52.671Z,48.01563
2023-08-25T09:09:52.311Z,49.85742
2023-08-25T09:12:43.585Z,50.87793
2023-08-25T09:14:43.479Z,48.13281
2023-08-25T09:16:43.506Z,49.26172
2023-08-25T09:18:43.479Z,47.29492
2023-08-25T09:20:43.576Z,46.80273
2023-08-25T09:22:43.464Z,48.56934
2023-08-25T09:24:43.370Z,49.01855
2023-08-25T09:27:27.805Z,46.22461
2023-08-25T09:29:27.959Z,46.56152
2023-08-25T09:31:27.793Z,43.66602
2023-08-25T09:33:27.816Z,43.52246
2023-08-25T09:35:27.871Z,46.95703
2023-08-25T09:37:27.711Z,44.48047
2023-08-25T09:39:27.953Z,40.98438
2023-08-25T09:43:07.926Z,43.7959
2023-08-25T09:45:08.112Z,41.56543
2023-08-25T09:47:08.264Z,45.80078
2023-08-25T09:49:07.936Z,42.60449
2023-08-25T09:51:08.453Z,42.17285
2023-08-25T09:53:08.202Z,41.52539
2023-08-25T09:55:07.897Z,42.75195
2023-08-25T09:57:40.118Z,42.4502
2023-08-25T09:59:40.103Z,41.85742
2023-08-25T10:01:40.265Z,42.70313
2023-08-25T10:03:40.736Z,43.01172
2023-08-25T10:05:40.497Z,41.31152
2023-08-25T10:07:40.157Z,40.6123
2023-08-25T10:09:40.321Z,41.04102
2023-08-25T10:11:40.045Z,43.38574
2023-08-25T10:12:47.841Z,38.84863
2023-08-25T10:14:47.727Z,37.82422
2023-08-25T10:16:47.594Z,39.06348
2023-08-25T10:18:47.576Z,38.83691
2023-08-25T10:20:47.564Z,39.81934
2023-08-25T10:22:47.506Z,40.8252
2023-08-25T10:24:47.596Z,37.53711
2023-08-25T10:26:47.936Z,37.61621
2023-08-25T10:28:51.212Z,38.67871
2023-08-25T10:30:51.179Z,35.75488
2023-08-25T10:32:51.342Z,36.68164
2023-08-25T10:34:51.412Z,40.81543
2023-08-25T10:36:51.189Z,35.67676
2023-08-25T10:38:51.176Z,37.25879
2023-08-25T10:40:51.228Z,35.83789
2023-08-25T10:43:08.612Z,34.27734
2023-08-25T10:45:08.594Z,35.02832
2023-08-25T10:47:08.537Z,35.20508
2023-08-25T10:49:12.332Z,38.37891
2023-08-25T10:51:08.699Z,33.81641
2023-08-25T10:53:08.546Z,35.40625
2023-08-25T10:55:08.726Z,35.56934
2023-08-25T10:57:08.570Z,34.13574
2023-08-25T10:58:21.041Z,33.26758
2023-08-25T11:00:21.078Z,32.79102
2023-08-25T11:02:21.000Z,31.94238
2023-08-25T11:04:21.231Z,32.69824
2023-08-25T11:06:21.133Z,32.02148
2023-08-25T11:08:21.020Z,34.17676
2023-08-25T11:10:21.009Z,31.80078
2023-08-25T11:12:20.982Z,31.02051
2023-08-25T11:14:20.809Z,31.14551
2023-08-25T11:16:20.935Z,34.3252
2023-08-25T11:18:21.010Z,33.94336
2023-08-25T11:20:20.909Z,34.54004
2023-08-25T11:22:21.251Z,33.95801
2023-08-25T11:24:20.775Z,33.89648
2023-08-25T11:26:20.873Z,33.84863
2023-08-25T11:29:06.334Z,33.43457
2023-08-25T11:31:06.334Z,34.03516
2023-08-25T11:33:06.288Z,35.3125
2023-08-25T11:35:06.254Z,34.6084
2023-08-25T11:37:06.246Z,34.08496
2023-08-25T11:39:06.637Z,31.61426
2023-08-25T11:41:06.305Z,30.90234
2023-08-25T11:44:13.645Z,33.32324
2023-08-25T11:46:13.812Z,31.48145
2023-08-25T11:48:13.733Z,31.2627
2023-08-25T11:50:13.669Z,33.55762
2023-08-25T11:52:13.713Z,32.8584
2023-08-25T11:54:13.750Z,31.15137
2023-08-25T11:56:13.587Z,32.36035
2023-08-25T11:59:42.189Z,32.63867
2023-08-25T12:01:42.049Z,31.74121
2023-08-25T12:03:42.053Z,34.00098
2023-08-25T12:05:42.523Z,34.79395
2023-08-25T12:07:42.309Z,33.57031
2023-08-25T12:09:42.079Z,30.40723
2023-08-25T12:11:42.154Z,31.60742
2023-08-25T12:14:17.604Z,31.58008
2023-08-25T12:16:17.665Z,31.72656
2023-08-25T12:18:17.754Z,31.21191
2023-08-25T12:20:17.619Z,31.50391
2023-08-25T12:22:17.663Z,31.53711
2023-08-25T12:24:17.611Z,32.03027
2023-08-25T12:26:17.669Z,30.91406
2023-08-25T12:28:17.872Z,32.85059
2023-08-25T12:29:31.694Z,31.35547
2023-08-25T12:31:31.888Z,32.20703
2023-08-25T12:33:33.319Z,31.83789
2023-08-25T12:35:31.695Z,33.80762
2023-08-25T12:37:31.582Z,32.48145
2023-08-25T12:39:31.674Z,32.00879
2023-08-25T12:41:31.763Z,32.30078
2023-08-25T12:45:24.183Z,33.00977
2023-08-25T12:47:24.002Z,31.88281
2023-08-25T12:49:24.110Z,32.34668
2023-08-25T12:51:23.993Z,33.01953
2023-08-25T12:53:24.092Z,30.67383
2023-08-25T12:55:24.018Z,30.42383
2023-08-25T12:57:23.971Z,31.46582
2023-08-25T13:00:23.467Z,31.41406
2023-08-25T13:02:23.553Z,31.40234
2023-08-25T13:04:23.438Z,30.43652
2023-08-25T13:06:23.456Z,29.43457
2023-08-25T13:08:23.754Z,33.59082
2023-08-25T13:10:23.493Z,31.0459
2023-08-25T13:12:23.464Z,30.10547
2023-08-25T13:15:18.962Z,30.77344
2023-08-25T13:17:18.700Z,30.875
2023-08-25T13:19:18.727Z,30.28418
2023-08-25T13:21:18.684Z,30.85938
2023-08-25T13:23:37.820Z,31.22461
2023-08-25T13:25:18.697Z,34.58691
2023-08-25T13:27:18.705Z,33.84961
2023-08-25T13:30:20.438Z,33.21484
2023-08-25T13:32:20.762Z,31.97656
2023-08-25T13:34:20.434Z,30.91895
2023-08-25T13:36:20.390Z,31.23535
2023-08-25T13:38:20.463Z,31.33594
2023-08-25T13:40:20.413Z,34.50391
2023-08-25T13:42:20.428Z,33.17773
2023-08-25T13:46:12.915Z,32.08496
2023-08-25T13:48:12.555Z,31.93457
2023-08-25T13:50:12.441Z,32.79199
2023-08-25T13:52:13.037Z,31.33789
2023-08-25T13:54:12.909Z,32.96094
2023-08-25T13:56:12.954Z,31.0459
2023-08-25T13:58:13.367Z,32.40234
2023-08-25T14:00:44.622Z,31.97656
2023-08-25T14:02:45.069Z,35.46094
2023-08-25T14:04:44.731Z,32.11133
2023-08-25T14:06:44.762Z,30.66211
2023-08-25T14:08:44.804Z,31.53418
2023-08-25T14:10:44.955Z,31.08984
2023-08-25T14:12:44.635Z,36.72754
2023-08-25T14:16:16.366Z,36.26855
2023-08-25T14:18:16.396Z,35.52539
2023-08-25T14:20:16.394Z,37.02832
2023-08-25T14:22:16.473Z,34.88574
2023-08-25T14:24:16.326Z,36.03223
2023-08-25T14:26:16.369Z,34.53418
2023-08-25T14:28:16.463Z,34.56641
2023-08-25T14:31:15.289Z,36.27051
2023-08-25T14:33:15.320Z,38.93359
2023-08-25T14:35:15.307Z,39.58789
2023-08-25T14:37:15.418Z,39.50977
2023-08-25T14:39:15.200Z,40.44824
2023-08-25T14:41:15.239Z,38.91406
2023-08-25T14:43:15.342Z,40.67578
2023-08-25T14:46:54.858Z,41.22559
2023-08-25T14:48:54.392Z,41.79199
2023-08-25T14:50:54.468Z,41.41992
2023-08-25T14:52:54.648Z,39.51953
2023-08-25T14:54:54.534Z,40.92969
2023-08-25T14:56:54.393Z,40.27246
2023-08-25T14:58:54.676Z,40.65039
2023-08-25T15:01:50.828Z,42.14941
2023-08-25T15:03:51.382Z,41.70703
2023-08-25T15:05:51.039Z,41.69434
2023-08-25T15:07:50.832Z,41.51953
2023-08-25T15:09:50.869Z,42.08789
2023-08-25T15:11:50.908Z,41.28809
2023-08-25T15:13:50.850Z,42.59473
2023-08-25T15:17:12.619Z,41.0957
2023-08-25T15:19:12.610Z,41.47559
2023-08-25T15:21:12.749Z,42.35645
2023-08-25T15:23:12.654Z,43.29395
2023-08-25T15:25:12.690Z,42.6416
2023-08-25T15:27:12.882Z,44.06055
2023-08-25T15:29:12.820Z,44.70996
2023-08-25T15:32:04.216Z,45.76953
2023-08-25T15:34:04.347Z,44.72656
2023-08-25T15:36:04.243Z,45.67969
2023-08-25T15:38:04.273Z,46.13477
2023-08-25T15:40:04.380Z,45.11035
2023-08-25T15:42:04.255Z,44.51563
2023-08-25T15:44:04.229Z,45.45117
2023-08-25T15:47:08.050Z,47.36719
2023-08-25T15:49:08.085Z,46.74023
2023-08-25T15:51:08.311Z,45.95605
2023-08-25T15:53:08.047Z,46.95996
2023-08-25T15:55:08.193Z,47.09375
2023-08-25T15:57:08.388Z,46.57031
2023-08-25T15:59:08.061Z,47.99902
2023-08-25T16:02:45.837Z,46.97852
2023-08-25T16:04:45.813Z,47.4082
2023-08-25T16:06:45.784Z,47.99512
2023-08-25T16:08:46.040Z,47.87109
2023-08-25T16:10:46.707Z,47.92285
2023-08-25T16:12:45.701Z,49.03906
2023-08-25T16:14:45.751Z,49.43848
2023-08-25T16:17:02.424Z,49.91699
2023-08-25T16:19:02.381Z,50.4082
2023-08-25T16:21:02.268Z,50.88965
2023-08-25T16:23:02.267Z,50.94727
2023-08-25T16:25:02.209Z,51.39648
2023-08-25T16:27:02.321Z,51.66797
2023-08-25T16:29:02.375Z,52.14355
2023-08-25T16:31:02.480Z,51.78711
2023-08-25T16:33:07.384Z,53.24902
2023-08-25T16:35:07.179Z,52.67285
2023-08-25T16:37:07.074Z,52.54492
2023-08-25T16:39:07.210Z,52.60059
2023-08-25T16:41:07.154Z,52.58008
2023-08-25T16:43:07.133Z,52.63672
2023-08-25T16:45:07.161Z,52.37793
2023-08-25T16:47:38.759Z,52.9668
2023-08-25T16:49:38.804Z,53.55762
2023-08-25T16:51:38.723Z,53.60254
2023-08-25T16:53:38.566Z,53.64063
2023-08-25T16:55:38.595Z,53.69922
2023-08-25T16:57:38.750Z,54.38086
2023-08-25T16:59:38.596Z,54.18164
2023-08-25T17:03:10.272Z,53.51465
2023-08-25T17:05:09.766Z,54.22949
2023-08-25T17:07:09.720Z,54.37793
2023-08-25T17:09:09.818Z,53.46973
2023-08-25T17:11:09.765Z,54.53125
2023-08-25T17:13:09.721Z,55.04199
2023-08-25T17:15:09.789Z,54.62012
2023-08-25T17:18:22.777Z,54.83691
2023-08-25T17:20:23.075Z,54.93848
2023-08-25T17:22:22.719Z,54.45215
2023-08-25T17:24:22.599Z,54.91895
2023-08-25T17:26:22.697Z,54.98047
2023-08-25T17:28:22.636Z,55.23926
2023-08-25T17:30:22.697Z,55.51074
2023-08-25T17:33:44.504Z,55.65527
2023-08-25T17:35:44.536Z,55.8291
2023-08-25T17:37:44.323Z,55.11035
2023-08-25T17:39:47.450Z,56.55176
2023-08-25T17:41:44.415Z,56.29883
2023-08-25T17:43:44.274Z,56.64941
2023-08-25T17:45:44.412Z,57.05957
2023-08-25T17:48:26.545Z,57.52441
2023-08-25T17:50:26.829Z,57.33105
2023-08-25T17:52:27.345Z,57.33496
2023-08-25T17:54:26.557Z,57.96094
2023-08-25T17:56:26.515Z,58.12988
2023-08-25T17:58:27.270Z,57.83594
2023-08-25T18:00:26.506Z,58.02246
2023-08-25T18:03:22.576Z,58.38477
2023-08-25T18:05:17.330Z,58.1123
2023-08-25T18:07:18.912Z,58.04688
2023-08-25T18:09:17.746Z,58.06738
2023-08-25T18:11:17.759Z,57.83789
2023-08-25T18:13:17.833Z,57.75977
2023-08-25T18:15:17.351Z,57.45313
2023-08-25T18:17:23.448Z,57.88867
2023-08-25T18:19:19.452Z,58.98438
2023-08-25T18:21:19.156Z,59.73535
2023-08-25T18:23:19.361Z,59.71777
2023-08-25T18:25:19.135Z,59.3877
2023-08-25T18:27:20.792Z,59.75
2023-08-25T18:29:19.187Z,59.29883
2023-08-25T18:31:21.826Z,59.68945
2023-08-25T18:34:17.648Z,60.04785
2023-08-25T18:36:17.538Z,60.06055
2023-08-25T18:38:17.676Z,60.37598
2023-08-25T18:40:17.697Z,60.10156
2023-08-25T18:42:17.562Z,60.08691
2023-08-25T18:44:17.536Z,60.24805
2023-08-25T18:46:17.733Z,61.38965
2023-08-25T18:49:12.389Z,61.24316
2023-08-25T18:51:11.627Z,61.27148
2023-08-25T18:53:11.640Z,61.43066
2023-08-25T18:55:12.905Z,61.35547
2023-08-25T18:57:11.806Z,61.36328
2023-08-25T18:59:11.627Z,61.60645
2023-08-25T19:01:12.007Z,61.79395
2023-08-25T19:04:36.907Z,62.33594
2023-08-25T19:06:36.490Z,62.31055
2023-08-25T19:08:36.507Z,61.875
2023-08-25T19:10:36.500Z,62.03516
2023-08-25T19:12:36.593Z,62.38867
2023-08-25T19:14:36.492Z,62.34961
2023-08-25T19:16:37.497Z,61.88086
2023-08-25T19:19:40.402Z,62.22461
2023-08-25T19:21:36.849Z,62.20215
2023-08-25T19:23:36.983Z,61.99512
2023-08-25T19:25:36.932Z,62.50098
2023-08-25T19:27:37.735Z,62.38965
2023-08-25T19:29:36.773Z,62.5459
2023-08-25T19:31:37.135Z,62.56543
2023-08-25T19:35:12.226Z,62.05078
2023-08-25T19:37:12.069Z,62.45313
2023-08-25T19:39:12.094Z,62.65137
2023-08-25T19:41:12.752Z,62.40918
2023-08-25T19:43:12.193Z,62.16797
2023-08-25T19:45:12.178Z,62.25098
2023-08-25T19:47:12.416Z,62.05371
2023-08-25T19:50:23.665Z,62.26465
2023-08-25T19:52:23.680Z,61.67383
2023-08-25T19:54:23.506Z,63.23828
2023-08-25T19:56:23.710Z,63.24121
2023-08-25T19:58:24.025Z,62.87207
2023-08-25T20:00:23.515Z,63.53711
2023-08-25T20:02:23.622Z,62.47461
2023-08-25T20:04:45.983Z,62.50977
2023-08-25T20:06:45.949Z,61.53711
2023-08-25T20:08:45.939Z,61.68164
2023-08-25T20:10:46.213Z,62.26074
2023-08-25T20:12:45.940Z,61.81055
2023-08-25T20:14:45.941Z,61.06152
2023-08-25T20:16:46.062Z,60.60547
2023-08-25T20:18:46.034Z,61.17773
2023-08-25T20:20:44.019Z,61.21289
2023-08-25T20:22:44.048Z,61.87891
2023-08-25T20:24:43.998Z,62.29297
2023-08-25T20:26:44.006Z,61.60938
2023-08-25T20:28:44.142Z,62.00781
2023-08-25T20:30:44.197Z,62.01074
2023-08-25T20:32:44.024Z,61.65234
2023-08-25T20:35:15.217Z,61.85156
2023-08-25T20:37:15.228Z,61.88965
2023-08-25T20:39:15.322Z,62.06543
2023-08-25T20:41:15.168Z,62.35547
2023-08-25T20:43:15.477Z,61.8125
2023-08-25T20:45:15.263Z,61.79785
2023-08-25T20:47:15.143Z,62.1084
2023-08-25T20:50:50.032Z,62.11035
2023-08-25T20:52:49.934Z,61.95508
2023-08-25T20:54:49.918Z,62.36719
2023-08-25T20:56:49.946Z,62.28906
2023-08-25T20:58:49.944Z,62.44922
2023-08-25T21:00:50.591Z,63.14648
2023-08-25T21:02:50.218Z,63.53906
2023-08-25T21:05:57.856Z,63.0293
2023-08-25T21:07:57.781Z,63.57422
2023-08-25T21:09:57.874Z,63.7832
2023-08-25T21:11:57.956Z,64.11426
2023-08-25T21:13:59.247Z,63.86914
2023-08-25T21:15:57.801Z,64.02441
2023-08-25T21:17:57.965Z,64.0332
2023-08-25T21:20:53.523Z,64.47559
2023-08-25T21:22:54.040Z,64.97559
2023-08-25T21:24:53.311Z,64.9375
2023-08-25T21:26:53.525Z,64.7666
2023-08-25T21:28:53.697Z,64.61719
2023-08-25T21:30:53.349Z,64.95215
2023-08-25T21:32:55.103Z,64.7959
2023-08-25T21:36:36.614Z,64.70996
2023-08-25T21:38:35.961Z,64.50293
2023-08-25T21:40:36.659Z,65.14355
2023-08-25T21:42:36.064Z,65.11621
2023-08-25T21:44:35.831Z,65.67188
2023-08-25T21:46:35.959Z,65.45703
2023-08-25T21:48:35.878Z,64.97461
2023-08-25T21:51:44.896Z,65.29004
2023-08-25T21:53:45.604Z,65.17676
2023-08-25T21:55:45.109Z,65.68555
2023-08-25T21:57:45.124Z,65.45313
2023-08-25T21:59:45.267Z,65.58887
2023-08-25T22:01:45.179Z,65.95898
2023-08-25T22:03:45.193Z,66.47363
2023-08-25T22:06:15.283Z,65.8584
2023-08-25T22:08:15.211Z,65.70801
2023-08-25T22:10:15.208Z,66.32813
2023-08-25T22:12:15.282Z,66.35449
2023-08-25T22:14:15.291Z,66.04492
2023-08-25T22:16:15.202Z,66.13086
2023-08-25T22:18:15.321Z,66.50488
2023-08-25T22:21:45.221Z,66.31934
2023-08-25T22:23:45.172Z,66.12305
2023-08-25T22:25:45.512Z,66.67578
2023-08-25T22:27:45.161Z,66.61621
2023-08-25T22:29:45.319Z,66.36621
2023-08-25T22:31:45.639Z,66.23926
2023-08-25T22:36:57.135Z,66.94531
2023-08-25T22:38:57.008Z,66.88086
2023-08-25T22:40:57.224Z,66.11426
2023-08-25T22:42:57.532Z,66.33203
2023-08-25T22:44:57.056Z,66.40918
2023-08-25T22:46:56.980Z,66.77734
2023-08-25T22:48:57.062Z,67.0293
2023-08-25T22:51:32.018Z,67.21094
2023-08-25T22:53:32.257Z,66.9707
2023-08-25T22:55:32.063Z,67.74023
2023-08-25T22:57:31.997Z,67.85352
2023-08-25T22:59:33.283Z,67.66797
2023-08-25T23:01:32.255Z,67.43848
2023-08-25T23:03:32.102Z,67.19043
2023-08-25T23:05:32.592Z,67.02148
2023-08-25T23:07:29.134Z,68.10059
2023-08-25T23:09:29.155Z,67.22363
2023-08-25T23:11:29.244Z,68.36914
2023-08-25T23:13:29.227Z,68.06934
2023-08-25T23:15:29.232Z,68.35156
2023-08-25T23:17:29.463Z,68.41602
2023-08-25T23:19:29.203Z,68.50098
2023-08-25T23:22:06.153Z,68.65039
2023-08-25T23:24:06.261Z,68.46973
2023-08-25T23:26:06.217Z,68.9502
2023-08-25T23:28:06.267Z,68.7207
2023-08-25T23:30:06.617Z,68.65527
2023-08-25T23:32:06.157Z,68.47949
2023-08-25T23:34:06.426Z,69.06543
2023-08-25T23:37:34.017Z,68.5625
2023-08-25T23:39:33.747Z,68.68359
2023-08-25T23:41:33.867Z,68.43164
2023-08-25T23:43:33.897Z,69.34863
2023-08-25T23:45:34.051Z,69.74219
2023-08-25T23:47:34.034Z,69.96973
2023-08-25T23:49:34.351Z,69.85547
2023-08-25T23:52:27.379Z,69.58789
2023-08-25T23:54:27.577Z,69.71191
2023-08-25T23:56:27.498Z,70.06055
2023-08-25T23:58:27.607Z,70.81055
